createdAt,value
2018-07-20T00:02:32.949Z,5.00
2018-07-20T00:05:08.228Z,5.53
2018-07-20T00:07:44.143Z,5.00
2018-07-20T00:10:19.897Z,5.50
2018-07-20T00:12:55.033Z,5.20
2018-07-20T00:15:30.390Z,4.97
2018-07-20T00:18:05.930Z,5.80
2018-07-20T00:20:35.635Z,5.70
2018-07-20T00:23:10.966Z,5.30
2018-07-20T00:25:46.730Z,4.93
2018-07-20T00:28:21.771Z,6.10
2018-07-20T00:30:56.668Z,5.70
2018-07-20T00:33:31.743Z,5.07
2018-07-20T00:36:07.892Z,5.90
2018-07-20T00:38:44.051Z,6.27
2018-07-20T00:41:20.006Z,6.20
2018-07-20T00:43:54.943Z,6.20
2018-07-20T00:46:30.029Z,6.10
2018-07-20T00:49:05.210Z,5.60
2018-07-20T00:51:35.225Z,5.97
2018-07-20T00:54:10.375Z,5.90
2018-07-20T00:56:45.858Z,5.90
2018-07-20T00:59:21.548Z,6.47
2018-07-20T01:01:57.018Z,6.10
2018-07-20T01:04:32.112Z,6.20
2018-07-20T01:07:07.808Z,6.43
2018-07-20T01:09:44.112Z,6.30
2018-07-20T01:12:19.449Z,5.77
2018-07-20T01:14:54.416Z,6.73
2018-07-20T01:17:29.334Z,5.80
2018-07-20T01:20:05.115Z,6.57
2018-07-20T01:22:40.157Z,6.40
2018-07-20T01:25:15.113Z,6.77
2018-07-20T01:27:50.506Z,6.77
2018-07-20T01:30:25.708Z,7.10
2018-07-20T01:33:01.092Z,6.53
2018-07-20T01:35:30.519Z,6.93
2018-07-20T01:38:05.781Z,6.80
2018-07-20T01:40:40.758Z,6.80
2018-07-20T01:43:15.894Z,7.10
2018-07-20T01:45:56.555Z,6.23
2018-07-20T01:48:31.434Z,7.23
2018-07-20T01:51:06.516Z,7.40
2018-07-20T01:53:41.539Z,6.60
2018-07-20T01:56:11.257Z,6.60
2018-07-20T01:58:46.323Z,6.70
2018-07-20T02:01:21.390Z,7.73
2018-07-20T02:03:56.505Z,7.50
2018-07-20T02:06:31.276Z,7.33
2018-07-20T02:09:09.230Z,7.60
2018-07-20T02:11:44.453Z,7.47
2018-07-20T02:14:19.343Z,7.57
2018-07-20T02:16:54.262Z,8.00
2018-07-20T02:19:29.170Z,7.43
2018-07-20T02:22:04.749Z,7.20
2018-07-20T02:24:40.149Z,7.37
2018-07-20T02:27:16.201Z,7.87
2018-07-20T02:29:52.050Z,7.27
2018-07-20T02:32:27.000Z,6.60
2018-07-20T02:35:02.144Z,7.10
2018-07-20T02:37:37.446Z,7.47
2018-07-20T02:40:12.469Z,7.70
2018-07-20T02:42:47.446Z,7.43
2018-07-20T02:45:22.184Z,7.10
2018-07-20T02:47:57.259Z,7.27
2018-07-20T02:50:32.348Z,7.00
2018-07-20T02:53:07.561Z,7.33
2018-07-20T02:55:42.309Z,7.53
2018-07-20T02:58:17.638Z,8.33
2018-07-20T03:00:52.584Z,9.10
2018-07-20T03:03:27.343Z,8.17
2018-07-20T03:06:02.794Z,8.10
2018-07-20T03:08:38.104Z,8.97
2018-07-20T03:11:13.057Z,8.67
2018-07-20T03:13:47.930Z,9.07
2018-07-20T03:16:22.922Z,7.97
2018-07-20T03:18:58.460Z,7.90
2018-07-20T03:21:33.328Z,8.87
2018-07-20T03:24:08.189Z,8.10
2018-07-20T03:26:43.054Z,8.10
2018-07-20T03:29:17.956Z,8.27
2018-07-20T03:31:52.726Z,8.47
2018-07-20T03:34:28.027Z,8.13
2018-07-20T03:37:03.160Z,7.80
2018-07-20T03:39:38.923Z,8.07
2018-07-20T03:42:13.724Z,7.30
2018-07-20T03:44:48.833Z,7.77
2018-07-20T03:47:20.153Z,8.23
2018-07-20T03:49:54.963Z,8.23
2018-07-20T03:52:30.520Z,8.27
2018-07-20T03:55:05.874Z,7.50
2018-07-20T03:57:41.227Z,8.23
2018-07-20T04:00:17.256Z,8.23
2018-07-20T04:02:52.373Z,8.23
2018-07-20T04:05:27.509Z,8.10
2018-07-20T04:08:02.362Z,8.00
2018-07-20T04:10:37.235Z,8.70
2018-07-20T04:13:12.023Z,7.40
2018-07-20T04:15:47.131Z,7.83
2018-07-20T04:18:22.218Z,8.17
2018-07-20T04:20:57.185Z,8.90
2018-07-20T04:23:32.289Z,9.37
2018-07-20T04:26:07.871Z,9.20
2018-07-20T04:28:43.395Z,8.40
2018-07-20T04:31:18.714Z,9.73
2018-07-20T04:33:53.530Z,8.83
2018-07-20T04:36:28.920Z,9.40
2018-07-20T04:39:04.699Z,9.77
2018-07-20T04:41:40.030Z,9.67
2018-07-20T04:44:14.867Z,8.97
2018-07-20T04:46:50.113Z,8.83
2018-07-20T04:49:25.181Z,10.50
2018-07-20T04:52:01.024Z,11.10
2018-07-20T04:54:37.012Z,11.93
2018-07-20T04:57:12.184Z,11.97
2018-07-20T04:59:47.240Z,10.57
2018-07-20T05:02:22.903Z,11.13
2018-07-20T05:04:57.643Z,11.53
2018-07-20T05:07:32.690Z,11.60
2018-07-20T05:10:07.485Z,12.77
2018-07-20T05:12:42.638Z,12.50
2018-07-20T05:15:17.910Z,13.03
2018-07-20T05:17:53.469Z,13.80
2018-07-20T05:20:28.746Z,13.47
2018-07-20T05:23:04.169Z,13.60
2018-07-20T05:25:39.263Z,13.33
2018-07-20T05:28:15.493Z,12.80
2018-07-20T05:30:51.281Z,14.20
2018-07-20T05:33:26.952Z,14.63
2018-07-20T05:36:02.999Z,14.23
2018-07-20T05:38:39.931Z,13.90
2018-07-20T05:41:16.192Z,14.00
2018-07-20T05:43:52.532Z,13.20
2018-07-20T05:46:28.427Z,13.60
2018-07-20T05:49:03.932Z,14.07
2018-07-20T05:51:39.322Z,14.67
2018-07-20T05:54:15.556Z,15.83
2018-07-20T05:56:51.717Z,15.70
2018-07-20T05:59:27.504Z,14.23
2018-07-20T06:02:02.976Z,14.40
2018-07-20T06:04:38.073Z,15.30
2018-07-20T06:07:13.187Z,15.37
2018-07-20T06:09:48.426Z,13.70
2018-07-20T06:12:24.103Z,15.47
2018-07-20T06:14:59.588Z,14.87
2018-07-20T06:17:34.772Z,15.20
2018-07-20T06:20:10.494Z,14.17
2018-07-20T06:22:40.503Z,16.50
2018-07-20T06:25:15.973Z,16.83
2018-07-20T06:27:51.322Z,16.70
2018-07-20T06:30:26.850Z,15.00
2018-07-20T06:33:02.863Z,17.07
2018-07-20T06:35:38.627Z,16.43
2018-07-20T06:38:13.808Z,15.30
2018-07-20T06:40:49.471Z,16.17
2018-07-20T06:43:25.256Z,16.07
2018-07-20T06:46:00.735Z,17.37
2018-07-20T06:48:36.491Z,18.60
2018-07-20T06:51:13.014Z,18.77
2018-07-20T06:53:45.944Z,18.30
2018-07-20T06:56:22.359Z,19.50
2018-07-20T06:58:58.387Z,19.00
2018-07-20T07:01:36.528Z,17.43
2018-07-20T07:04:11.617Z,20.53
2018-07-20T07:06:47.165Z,20.30
2018-07-20T07:09:27.810Z,19.20
2018-07-20T07:12:00.293Z,18.67
2018-07-20T07:14:36.456Z,19.20
2018-07-20T07:17:12.380Z,20.13
2018-07-20T07:19:47.491Z,20.50
2018-07-20T07:22:22.668Z,21.67
2018-07-20T07:24:59.739Z,22.83
2018-07-20T07:27:34.962Z,23.20
2018-07-20T07:30:10.690Z,22.30
2018-07-20T07:32:45.771Z,23.50
2018-07-20T07:35:21.615Z,23.33
2018-07-20T07:37:56.853Z,23.40
2018-07-20T07:40:33.269Z,22.17
2018-07-20T07:43:08.950Z,23.90
2018-07-20T07:45:44.300Z,22.90
2018-07-20T07:48:20.105Z,24.00
2018-07-20T07:50:55.284Z,24.57
2018-07-20T07:53:30.625Z,23.77
2018-07-20T07:56:05.843Z,22.00
2018-07-20T07:58:41.072Z,19.70
2018-07-20T08:01:16.531Z,23.10
2018-07-20T08:03:51.693Z,23.23
2018-07-20T08:06:27.573Z,25.03
2018-07-20T08:09:03.501Z,23.13
2018-07-20T08:11:38.983Z,22.80
2018-07-20T08:14:14.053Z,24.07
2018-07-20T08:16:49.175Z,23.83
2018-07-20T08:19:24.283Z,22.60
2018-07-20T08:21:59.670Z,22.27
2018-07-20T08:24:34.705Z,24.77
2018-07-20T08:27:09.818Z,25.40
2018-07-20T08:29:45.427Z,25.07
2018-07-20T08:32:20.479Z,23.70
2018-07-20T08:34:56.519Z,21.80
2018-07-20T08:37:32.169Z,17.90
2018-07-20T08:40:07.861Z,18.33
2018-07-20T08:42:43.079Z,18.53
2018-07-20T08:45:18.554Z,18.03
2018-07-20T08:47:53.767Z,18.53
2018-07-20T08:50:29.773Z,16.30
2018-07-20T08:53:04.950Z,14.23
2018-07-20T08:55:39.605Z,14.83
2018-07-20T08:58:15.094Z,15.40
2018-07-20T09:00:50.695Z,16.13
2018-07-20T09:03:25.802Z,17.60
2018-07-20T09:06:01.462Z,16.73
2018-07-20T09:08:36.727Z,19.60
2018-07-20T09:11:12.552Z,19.00
2018-07-20T09:13:48.322Z,20.07
2018-07-20T09:16:24.349Z,19.40
2018-07-20T09:18:59.446Z,18.10
2018-07-20T09:21:35.584Z,20.93
2018-07-20T09:24:10.567Z,24.20
2018-07-20T09:26:51.727Z,20.47
2018-07-20T09:29:26.596Z,16.97
2018-07-20T09:32:01.889Z,18.70
2018-07-20T09:34:37.710Z,20.03
2018-07-20T09:37:13.688Z,21.20
2018-07-20T09:39:48.811Z,19.97
2018-07-20T09:42:24.262Z,20.43
2018-07-20T09:44:59.643Z,22.30
2018-07-20T09:47:34.919Z,49.00
2018-07-20T09:50:09.961Z,24.37
2018-07-20T09:52:45.233Z,23.30
2018-07-20T09:55:20.765Z,20.60
2018-07-20T09:57:56.316Z,21.07
2018-07-20T10:00:36.505Z,18.10
2018-07-20T10:03:12.228Z,19.57
2018-07-20T10:05:48.406Z,18.97
2018-07-20T10:08:24.299Z,18.87
2018-07-20T10:10:59.267Z,21.07
2018-07-20T10:13:34.323Z,18.87
2018-07-20T10:16:09.538Z,21.20
2018-07-20T10:18:44.601Z,16.90
2018-07-20T10:21:20.993Z,16.60
2018-07-20T10:23:55.959Z,19.70
2018-07-20T10:26:31.370Z,17.93
2018-07-20T10:29:06.880Z,16.93
2018-07-20T10:31:41.928Z,17.80
2018-07-20T10:34:17.862Z,17.40
2018-07-20T10:36:53.023Z,17.50
2018-07-20T10:39:28.361Z,13.70
2018-07-20T10:42:03.277Z,14.20
2018-07-20T10:44:40.372Z,13.30
2018-07-20T10:47:16.438Z,13.57
2018-07-20T10:49:52.134Z,15.43
2018-07-20T10:52:27.153Z,15.47
2018-07-20T10:55:02.382Z,18.13
2018-07-20T10:57:37.432Z,15.83
2018-07-20T11:00:12.812Z,15.07
2018-07-20T11:02:47.848Z,15.50
2018-07-20T11:05:23.762Z,13.80
2018-07-20T11:07:59.775Z,14.30
2018-07-20T11:10:34.819Z,13.13
2018-07-20T11:13:09.940Z,13.60
2018-07-20T11:15:45.219Z,16.17
2018-07-20T11:18:20.393Z,13.80
2018-07-20T11:20:55.556Z,14.50
2018-07-20T11:23:30.861Z,16.33
2018-07-20T11:26:06.902Z,18.60
2018-07-20T11:28:42.573Z,16.30
2018-07-20T11:31:18.329Z,15.70
2018-07-20T11:33:53.453Z,17.30
2018-07-20T11:36:28.572Z,20.30
2018-07-20T11:39:04.662Z,15.10
2018-07-20T11:41:40.267Z,12.73
2018-07-20T11:44:15.329Z,13.73
2018-07-20T11:46:50.770Z,15.93
2018-07-20T11:49:26.154Z,14.63
2018-07-20T11:52:02.245Z,14.60
2018-07-20T11:54:37.821Z,13.20
2018-07-20T11:57:13.058Z,14.37
2018-07-20T11:59:48.925Z,12.63
2018-07-20T12:02:24.153Z,14.90
2018-07-20T12:04:59.518Z,12.20
2018-07-20T12:07:34.642Z,12.63
2018-07-20T12:10:09.849Z,12.70
2018-07-20T12:12:45.619Z,12.10
2018-07-20T12:15:20.875Z,13.60
2018-07-20T12:18:00.373Z,12.17
2018-07-20T12:20:35.844Z,10.60
2018-07-20T12:23:11.154Z,14.00
2018-07-20T12:25:46.126Z,12.20
2018-07-20T12:28:21.471Z,12.73
2018-07-20T12:30:57.579Z,13.30
2018-07-20T12:33:33.899Z,11.33
2018-07-20T12:36:09.133Z,12.50
2018-07-20T12:38:48.931Z,12.33
2018-07-20T12:41:24.513Z,12.30
2018-07-20T12:43:59.784Z,10.50
2018-07-20T12:46:35.051Z,10.77
2018-07-20T12:49:09.691Z,10.83
2018-07-20T12:51:45.119Z,11.50
2018-07-20T12:54:20.068Z,9.77
2018-07-20T12:56:55.242Z,10.50
2018-07-20T12:59:29.663Z,11.30
2018-07-20T13:02:05.197Z,8.67
2018-07-20T13:04:40.343Z,9.07
2018-07-20T13:07:15.389Z,10.20
2018-07-20T13:09:50.782Z,9.30
2018-07-20T13:12:26.052Z,8.40
2018-07-20T13:15:01.393Z,9.30
2018-07-20T13:17:36.414Z,8.90
2018-07-20T13:20:12.344Z,7.47
2018-07-20T13:22:47.427Z,8.10
2018-07-20T13:25:23.044Z,8.30
2018-07-20T13:27:58.222Z,7.50
2018-07-20T13:30:33.926Z,7.23
2018-07-20T13:33:09.055Z,9.20
2018-07-20T13:35:44.789Z,8.40
2018-07-20T13:38:19.721Z,7.70
2018-07-20T13:40:54.824Z,7.87
2018-07-20T13:43:29.841Z,7.33
2018-07-20T13:46:04.908Z,8.83
2018-07-20T13:48:40.283Z,8.37
2018-07-20T13:51:15.513Z,7.60
2018-07-20T13:53:50.330Z,8.60
2018-07-20T13:56:25.740Z,8.30
2018-07-20T13:59:00.988Z,8.00
2018-07-20T14:01:35.907Z,8.13
2018-07-20T14:04:11.368Z,8.23
2018-07-20T14:06:46.491Z,7.83
2018-07-20T14:09:21.574Z,7.70
2018-07-20T14:11:56.607Z,8.40
2018-07-20T14:14:31.735Z,8.00
2018-07-20T14:17:06.781Z,7.97
2018-07-20T14:19:42.296Z,7.03
2018-07-20T14:22:17.466Z,7.67
2018-07-20T14:24:52.583Z,7.37
2018-07-20T14:27:27.682Z,7.60
2018-07-20T14:30:02.713Z,6.93
2018-07-20T14:32:38.024Z,6.93
2018-07-20T14:35:13.075Z,7.07
2018-07-20T14:37:48.149Z,6.80
2018-07-20T14:40:23.054Z,6.43
2018-07-20T14:42:58.720Z,6.63
2018-07-20T14:45:33.780Z,6.77
2018-07-20T14:48:08.866Z,6.00
2018-07-20T14:50:44.271Z,6.47
2018-07-20T14:53:19.664Z,6.53
2018-07-20T14:55:54.827Z,6.37
2018-07-20T14:58:29.551Z,6.37
2018-07-20T15:01:04.627Z,6.33
2018-07-20T15:03:39.842Z,9.33
2018-07-20T15:06:14.733Z,7.10
2018-07-20T15:08:49.724Z,6.17
2018-07-20T15:11:24.685Z,6.50
2018-07-20T15:13:59.935Z,6.07
2018-07-20T15:16:34.865Z,5.40
2018-07-20T15:19:09.647Z,5.50
2018-07-20T15:21:44.799Z,5.73
2018-07-20T15:24:20.602Z,6.40
2018-07-20T15:26:55.777Z,6.00
2018-07-20T15:29:31.959Z,5.50
2018-07-20T15:32:07.686Z,5.30
2018-07-20T15:34:42.933Z,6.00
2018-07-20T15:37:18.834Z,5.65
2018-07-20T15:39:54.856Z,5.90
2018-07-20T15:42:30.551Z,6.20
2018-07-20T15:45:06.598Z,5.17
2018-07-20T15:47:42.917Z,5.75
2018-07-20T15:50:18.965Z,5.47
2018-07-20T15:55:29.633Z,5.03
2018-07-20T15:58:05.920Z,5.37
2018-07-20T16:00:42.298Z,6.05
2018-07-20T16:03:22.249Z,5.83
2018-07-20T16:05:58.864Z,5.55
2018-07-20T16:08:34.637Z,5.87
2018-07-20T16:11:09.384Z,5.80
2018-07-20T16:13:46.680Z,6.10
2018-07-20T16:16:21.897Z,5.60
2018-07-20T16:18:56.946Z,6.07
2018-07-20T16:21:33.069Z,6.67
2018-07-20T16:24:08.401Z,6.00
2018-07-20T16:26:43.559Z,5.60
2018-07-20T16:29:18.241Z,5.27
2018-07-20T16:31:53.534Z,5.87
2018-07-20T16:34:28.788Z,6.50
2018-07-20T16:37:04.130Z,6.10
2018-07-20T16:39:39.230Z,6.90
2018-07-20T16:42:14.663Z,6.20
2018-07-20T16:44:51.373Z,6.10
2018-07-20T16:47:26.590Z,6.30
2018-07-20T16:50:02.072Z,6.37
2018-07-20T16:52:37.183Z,6.20
2018-07-20T16:55:12.702Z,7.13
2018-07-20T16:57:47.672Z,7.07
2018-07-20T17:00:23.183Z,6.50
2018-07-20T17:02:57.992Z,7.40
2018-07-20T17:05:33.552Z,7.20
2018-07-20T17:08:08.585Z,7.60
2018-07-20T17:10:44.021Z,6.67
2018-07-20T17:13:19.367Z,7.73
2018-07-20T17:15:54.520Z,7.10
2018-07-20T17:18:29.556Z,6.73
2018-07-20T17:21:04.779Z,8.10
2018-07-20T17:23:39.616Z,6.80
2018-07-20T17:26:14.762Z,7.73
2018-07-20T17:28:50.367Z,7.17
2018-07-20T17:31:25.359Z,7.33
2018-07-20T17:34:00.668Z,7.80
2018-07-20T17:36:35.654Z,7.67
2018-07-20T17:39:12.248Z,7.27
2018-07-20T17:41:47.152Z,8.00
2018-07-20T17:44:21.948Z,7.70
2018-07-20T17:46:56.926Z,7.60
2018-07-20T17:49:32.090Z,7.70
2018-07-20T17:52:08.000Z,7.70
2018-07-20T17:54:42.913Z,7.40
2018-07-20T17:57:18.427Z,7.80
2018-07-20T17:59:53.346Z,7.97
2018-07-20T18:02:28.627Z,8.50
2018-07-20T18:05:04.259Z,7.93
2018-07-20T18:07:39.507Z,7.37
2018-07-20T18:10:14.633Z,8.40
2018-07-20T18:12:49.618Z,7.33
2018-07-20T18:15:24.750Z,7.17
2018-07-20T18:17:59.932Z,8.17
2018-07-20T18:20:34.626Z,7.80
2018-07-20T18:23:09.558Z,6.70
2018-07-20T18:25:44.569Z,7.43
2018-07-20T18:28:19.885Z,6.90
2018-07-20T18:30:55.267Z,7.60
2018-07-20T18:33:30.276Z,7.40
2018-07-20T18:36:05.371Z,7.00
2018-07-20T18:38:40.747Z,6.67
2018-07-20T18:41:15.973Z,6.90
2018-07-20T18:43:51.723Z,7.00
2018-07-20T18:46:26.643Z,7.27
2018-07-20T18:49:01.831Z,6.97
2018-07-20T18:51:36.792Z,7.87
2018-07-20T18:54:12.102Z,6.90
2018-07-20T18:56:47.291Z,7.17
2018-07-20T18:59:22.256Z,7.40
2018-07-20T19:01:57.890Z,7.00
2018-07-20T19:04:33.107Z,7.27
2018-07-20T19:07:08.671Z,7.57
2018-07-20T19:09:44.220Z,7.00
2018-07-20T19:12:19.638Z,6.90
2018-07-20T19:14:54.733Z,6.03
2018-07-20T19:17:29.803Z,7.03
2018-07-20T19:20:05.451Z,6.47
2018-07-20T19:22:40.532Z,7.20
2018-07-20T19:25:15.795Z,6.20
2018-07-20T19:27:51.029Z,6.83
2018-07-20T19:30:26.038Z,6.73
2018-07-20T19:33:01.595Z,5.93
2018-07-20T19:35:36.952Z,5.73
2018-07-20T19:38:12.166Z,6.13
2018-07-20T19:40:47.597Z,6.07
2018-07-20T19:43:23.218Z,6.50
2018-07-20T19:45:58.237Z,5.77
2018-07-20T19:48:38.644Z,5.67
2018-07-20T19:51:13.570Z,6.53
2018-07-20T19:53:48.640Z,6.10
2018-07-20T19:56:24.127Z,5.77
2018-07-20T19:58:59.709Z,6.47
2018-07-20T20:01:35.376Z,6.43
2018-07-20T20:04:10.444Z,5.90
2018-07-20T20:06:46.382Z,5.90
2018-07-20T20:09:21.389Z,5.97
2018-07-20T20:11:56.465Z,5.90
2018-07-20T20:14:31.982Z,6.03
2018-07-20T20:17:07.348Z,6.67
2018-07-20T20:19:47.839Z,5.80
2018-07-20T20:22:23.016Z,6.40
2018-07-20T20:24:58.013Z,6.20
2018-07-20T20:27:33.155Z,6.40
2018-07-20T20:30:08.616Z,5.93
2018-07-20T20:32:43.843Z,6.70
2018-07-20T20:35:19.364Z,6.47
2018-07-20T20:37:54.451Z,6.10
2018-07-20T20:40:29.323Z,6.43
2018-07-20T20:43:04.495Z,5.83
2018-07-20T20:45:39.503Z,5.83
2018-07-20T20:48:14.565Z,6.33
2018-07-20T20:50:50.055Z,6.00
2018-07-20T20:53:25.308Z,6.03
2018-07-20T20:56:00.289Z,6.23
2018-07-20T20:58:35.577Z,5.93
2018-07-20T21:01:15.488Z,6.83
2018-07-20T21:03:50.641Z,6.70
2018-07-20T21:06:25.732Z,6.23
2018-07-20T21:09:00.600Z,6.27
2018-07-20T21:11:35.562Z,5.63
2018-07-20T21:14:10.877Z,5.67
2018-07-20T21:16:45.629Z,6.00
2018-07-20T21:19:21.038Z,5.90
2018-07-20T21:21:56.498Z,6.10
2018-07-20T21:24:31.962Z,5.77
2018-07-20T21:27:07.451Z,5.80
2018-07-20T21:29:42.625Z,6.37
2018-07-20T21:32:18.223Z,6.07
2018-07-20T21:34:53.737Z,6.00
2018-07-20T21:37:29.091Z,6.00
2018-07-20T21:40:04.812Z,5.80
2018-07-20T21:42:39.884Z,6.23
2018-07-20T21:45:15.385Z,5.77
2018-07-20T21:47:50.658Z,6.07
2018-07-20T21:50:26.131Z,6.27
2018-07-20T21:53:01.376Z,6.20
2018-07-20T21:55:36.315Z,6.90
2018-07-20T21:58:11.608Z,5.80
2018-07-20T22:00:51.609Z,5.47
2018-07-20T22:03:27.412Z,5.90
2018-07-20T22:06:02.612Z,6.20
2018-07-20T22:08:38.012Z,6.53
2018-07-20T22:11:13.132Z,6.77
2018-07-20T22:13:48.291Z,6.60
2018-07-20T22:16:23.777Z,6.80
2018-07-20T22:18:58.925Z,6.00
2018-07-20T22:21:34.205Z,6.40
2018-07-20T22:24:16.175Z,6.20
2018-07-20T22:26:51.496Z,6.60
2018-07-20T22:29:26.758Z,6.83
2018-07-20T22:32:02.101Z,7.00
2018-07-20T22:34:37.201Z,6.40
2018-07-20T22:37:12.930Z,6.17
2018-07-20T22:39:48.134Z,6.70
2018-07-20T22:42:23.922Z,5.80
2018-07-20T22:44:58.764Z,6.50
2018-07-20T22:47:34.177Z,6.97
2018-07-20T22:50:09.463Z,6.30
2018-07-20T22:52:45.036Z,6.50
2018-07-20T22:55:20.478Z,9.13
2018-07-20T22:57:55.585Z,9.20
2018-07-20T23:00:30.628Z,8.07
2018-07-20T23:03:10.694Z,8.33
2018-07-20T23:05:45.795Z,7.20
2018-07-20T23:08:20.864Z,6.73
2018-07-20T23:10:56.129Z,6.83
2018-07-20T23:13:31.150Z,6.93
2018-07-20T23:16:06.454Z,6.20
2018-07-20T23:18:41.398Z,6.40
2018-07-20T23:21:16.601Z,7.10
2018-07-20T23:23:51.661Z,6.20
2018-07-20T23:26:26.678Z,6.10
2018-07-20T23:29:01.613Z,6.60
2018-07-20T23:31:37.021Z,6.63
2018-07-20T23:34:12.401Z,6.50
2018-07-20T23:36:47.527Z,6.67
2018-07-20T23:39:22.564Z,6.50
2018-07-20T23:41:57.563Z,7.37
2018-07-20T23:44:32.691Z,7.33
2018-07-20T23:47:07.519Z,6.67
2018-07-20T23:49:42.735Z,7.43
2018-07-20T23:52:18.778Z,6.83
2018-07-20T23:54:53.810Z,6.93
2018-07-20T23:57:28.982Z,7.07
